»·PEaware :: N660WC KFAT-KSNA

N660WC :: KFAT-KSNA

FLIGHT INFORMATION

Flight Status: Arrived
Operator: Privately registered:
United States
More flights under this callsign
Pilot: John H. (7647)
Aircraft: CESSNA T210 TURBO CENTURION
(T210)
More flights by this aircraft type
Origin: KFAT Fresno Yosemite Intl
United States
Destination: KSNA John Wayne-Orange Co
United States
More flights between these airports :: More routes between these airports
Route: FRAME V23 TWINE VNY V186 BAYJY HUKEM
File this flight plan on PilotEdge
Remarks: KSNA ILS 20R practice
Altitude:
(Current/Filed)
5,500ft
Speed:
(Current/Filed)
160kts
Departed: 26-Aug-18 11:36 AM
Arrived: 26-Aug-18 01:07 PM
Distance/Time
Traveled:
207nm/1:30
Distance/Time
To Go:
Arrived

Flight Plot

Page will automatically refresh every two minutes.

Flight plan parsing failed; only flown route is shown


Map Options




Map Legend


Flown Route
Filed Route
Departure Airport
Arrival Airport
Navaid (VOR, NDB)
Fix

Horizontal Profiles

Position Reports

Time Latitude Longitude Heading Altitude Ground
Speed
26-Aug-18 11:26 36.776415 -119.726401 306 332ft 0kts
26-Aug-18 11:27 36.776415 -119.726401 306 332ft 0kts
26-Aug-18 11:28 36.776415 -119.726401 306 332ft 0kts
26-Aug-18 11:29 36.776415 -119.726401 306 332ft 0kts
26-Aug-18 11:30 36.776415 -119.726401 306 332ft 0kts
26-Aug-18 11:31 36.776415 -119.726401 306 332ft 0kts
26-Aug-18 11:32 36.776415 -119.726401 306 332ft 0kts
26-Aug-18 11:33 36.777235 -119.726257 33 332ft 13kts
26-Aug-18 11:34 36.775044 -119.720838 125 332ft 23kts
26-Aug-18 11:35 36.772685 -119.715725 44 332ft 4kts
26-Aug-18 11:36 36.772747 -119.715664 36 332ft 1kts
26-Aug-18 11:37 36.779304 -119.726344 304 431ft 95kts
26-Aug-18 11:38 36.795901 -119.754153 272 1330ft 106kts
26-Aug-18 11:39 36.774407 -119.770760 127 2127ft 108kts
26-Aug-18 11:40 36.761078 -119.739598 128 2999ft 105kts
26-Aug-18 11:41 36.741460 -119.715897 143 3966ft 93kts
26-Aug-18 11:42 36.719991 -119.704161 165 4892ft 78kts
26-Aug-18 11:43 36.698202 -119.685105 140 5443ft 111kts
26-Aug-18 11:44 36.670574 -119.654403 135 5515ft 150kts
26-Aug-18 11:45 36.632876 -119.637266 163 5505ft 158kts
26-Aug-18 11:46 36.592028 -119.616608 157 5502ft 160kts
26-Aug-18 11:47 36.552830 -119.597573 158 5504ft 162kts
26-Aug-18 11:48 36.511471 -119.577865 158 5504ft 158kts
26-Aug-18 11:49 36.470409 -119.558368 158 5502ft 158kts
26-Aug-18 11:50 36.430025 -119.539208 159 5498ft 160kts
26-Aug-18 11:51 36.388351 -119.519515 158 5501ft 161kts
26-Aug-18 11:52 36.347997 -119.500417 158 5503ft 161kts
26-Aug-18 11:53 36.307548 -119.481319 158 5501ft 161kts
26-Aug-18 11:54 36.265995 -119.461717 158 5502ft 161kts
26-Aug-18 11:55 36.224237 -119.442037 158 5502ft 161kts
26-Aug-18 11:56 36.182514 -119.422387 158 5491ft 161kts
26-Aug-18 11:57 36.146036 -119.405220 158 5493ft 161kts
26-Aug-18 11:58 36.108737 -119.387713 158 5494ft 163kts
26-Aug-18 11:59 36.066455 -119.367869 157 5490ft 164kts
26-Aug-18 12:00 36.025172 -119.348514 159 5493ft 164kts
26-Aug-18 12:01 35.984380 -119.329404 158 5494ft 163kts
26-Aug-18 12:02 35.941937 -119.309566 158 5494ft 163kts
26-Aug-18 12:03 35.899878 -119.289889 159 5494ft 163kts
26-Aug-18 12:04 35.861376 -119.271957 158 5493ft 163kts
26-Aug-18 12:05 35.825783 -119.255327 159 5492ft 167kts
26-Aug-18 12:06 35.786150 -119.236878 159 5475ft 164kts
26-Aug-18 12:07 35.743698 -119.217122 159 5466ft 162kts
26-Aug-18 12:08 35.701917 -119.197710 159 5466ft 161kts
26-Aug-18 12:09 35.660785 -119.178624 159 5462ft 162kts
26-Aug-18 12:10 35.620787 -119.160110 157 5466ft 164kts
26-Aug-18 12:11 35.578028 -119.140177 159 5462ft 167kts
26-Aug-18 12:12 35.535601 -119.120574 161 5466ft 166kts
26-Aug-18 12:13 35.492544 -119.100735 160 5466ft 166kts
26-Aug-18 12:14 35.448872 -119.084532 166 5466ft 165kts
26-Aug-18 12:15 35.413618 -119.072266 166 5466ft 165kts
26-Aug-18 12:16 35.362595 -119.054484 165 5470ft 165kts
26-Aug-18 12:17 35.326070 -119.041765 165 5466ft 165kts
26-Aug-18 12:18 35.274589 -119.023834 165 5466ft 165kts
26-Aug-18 12:19 35.238788 -119.011390 166 5467ft 166kts
26-Aug-18 12:20 35.187807 -118.993585 167 5557ft 163kts
26-Aug-18 12:21 35.150792 -118.980864 166 5632ft 171kts
26-Aug-18 12:22 35.104230 -118.964725 166 5631ft 176kts
26-Aug-18 12:23 35.049108 -118.945644 166 5630ft 178kts
26-Aug-18 12:24 35.009410 -118.931929 165 5639ft 178kts
26-Aug-18 12:25 34.963285 -118.915992 166 5654ft 167kts
26-Aug-18 12:26 34.919680 -118.900945 165 5654ft 160kts
26-Aug-18 12:27 34.879510 -118.887093 164 5661ft 159kts
26-Aug-18 12:28 34.837061 -118.872485 166 5656ft 159kts
26-Aug-18 12:29 34.794841 -118.856611 160 5657ft 159kts
26-Aug-18 12:30 34.753948 -118.836190 159 5656ft 159kts
26-Aug-18 12:31 34.713003 -118.815788 159 5656ft 160kts
26-Aug-18 12:32 34.671856 -118.795330 159 5656ft 159kts
26-Aug-18 12:33 34.631687 -118.775389 159 5655ft 159kts
26-Aug-18 12:34 34.590762 -118.755093 159 5640ft 160kts
26-Aug-18 12:35 34.549783 -118.734778 159 5638ft 160kts
26-Aug-18 12:36 34.508944 -118.714563 159 5638ft 160kts
26-Aug-18 12:37 34.467768 -118.694200 159 5642ft 161kts
26-Aug-18 12:38 34.426266 -118.673710 160 5632ft 161kts
26-Aug-18 12:39 34.384896 -118.653434 157 5497ft 168kts
26-Aug-18 12:40 34.342512 -118.632444 157 5474ft 161kts
26-Aug-18 12:41 34.304178 -118.607391 131 5479ft 159kts
26-Aug-18 12:42 34.276243 -118.567602 129 5529ft 158kts
26-Aug-18 12:43 34.248270 -118.527170 129 5529ft 159kts
26-Aug-18 12:44 34.221773 -118.484767 110 5528ft 159kts
26-Aug-18 12:45 34.206607 -118.435383 109 5529ft 159kts
26-Aug-18 12:46 34.191449 -118.385432 108 5481ft 164kts
26-Aug-18 12:47 34.176766 -118.336934 110 5475ft 164kts
26-Aug-18 12:48 34.161537 -118.287008 110 5471ft 163kts
26-Aug-18 12:49 34.145988 -118.236024 110 5473ft 163kts
26-Aug-18 12:50 34.130462 -118.185072 111 5498ft 162kts
26-Aug-18 12:51 34.115265 -118.135485 111 5498ft 159kts
26-Aug-18 12:52 34.100016 -118.086051 111 5506ft 158kts
26-Aug-18 12:53 34.085461 -118.038546 111 5501ft 157kts
26-Aug-18 12:54 34.070492 -117.989823 111 5501ft 157kts
26-Aug-18 12:55 34.055345 -117.940645 111 5501ft 157kts
26-Aug-18 12:56 34.040564 -117.892681 111 5494ft 156kts
26-Aug-18 12:57 34.025419 -117.843663 111 5501ft 157kts
26-Aug-18 12:58 34.008331 -117.795619 135 5508ft 154kts
26-Aug-18 12:59 33.967260 -117.785123 178 5502ft 157kts
26-Aug-18 13:00 33.922009 -117.784171 179 5148ft 170kts
26-Aug-18 13:01 33.879103 -117.783842 180 4443ft 150kts
26-Aug-18 13:02 33.838952 -117.784006 179 3715ft 143kts
26-Aug-18 13:03 33.799036 -117.785270 194 2801ft 138kts
26-Aug-18 13:04 33.760688 -117.809518 215 1505ft 173kts
26-Aug-18 13:05 33.726569 -117.836124 209 936ft 136kts
26-Aug-18 13:06 33.698378 -117.854437 208 535ft 97kts
26-Aug-18 13:07 33.677530 -117.867578 209 60ft 72kts
26-Aug-18 13:08 33.674248 -117.870864 286 60ft 0kts
26-Aug-18 13:09 33.672846 -117.872972 90 60ft 0kts
26-Aug-18 13:10 33.672846 -117.872972 90 60ft 0kts

Navigation Log

Ident Type
Flight plan parsing failed, navigation log unavailable